createdAt,value
2023-01-29T00:01:59.865Z,91.42
2023-01-29T00:04:26.872Z,90.94
2023-01-29T00:06:53.805Z,89.60
2023-01-29T00:09:20.928Z,89.12
2023-01-29T00:11:47.837Z,88.66
2023-01-29T00:14:14.664Z,88.71
2023-01-29T00:16:41.581Z,88.96
2023-01-29T00:19:08.508Z,88.28
2023-01-29T00:21:35.449Z,88.60
2023-01-29T00:24:02.733Z,89.01
2023-01-29T00:26:29.628Z,89.01
2023-01-29T00:28:57.528Z,88.77
2023-01-29T00:31:25.873Z,87.80
2023-01-29T00:33:53.212Z,87.35
2023-01-29T00:36:21.542Z,86.85
2023-01-29T00:38:54.808Z,86.64
2023-01-29T00:41:40.995Z,87.18
2023-01-29T00:44:26.948Z,86.48
2023-01-29T00:46:54.785Z,87.73
2023-01-29T00:49:21.800Z,88.34
2023-01-29T00:52:08.836Z,87.92
2023-01-29T00:54:35.973Z,87.69
2023-01-29T00:57:04.108Z,86.33
2023-01-29T00:59:31.326Z,86.34
2023-01-29T01:02:17.226Z,86.34
2023-01-29T01:04:44.144Z,86.46
2023-01-29T01:09:56.538Z,87.14
2023-01-29T01:12:23.373Z,87.20
2023-01-29T01:14:50.209Z,86.45
2023-01-29T01:17:17.557Z,85.93
2023-01-29T01:19:44.714Z,85.86
2023-01-29T01:22:12.113Z,85.85
2023-01-29T01:24:39.100Z,85.76
2023-01-29T01:27:06.932Z,86.08
2023-01-29T01:29:33.943Z,85.33
2023-01-29T01:32:01.340Z,85.23
2023-01-29T01:34:28.996Z,85.18
2023-01-29T01:36:56.322Z,86.79
2023-01-29T01:39:24.830Z,86.53
2023-01-29T01:41:55.664Z,85.97
2023-01-29T01:44:56.140Z,85.95
2023-01-29T01:47:31.533Z,87.55
2023-01-29T01:50:11.771Z,86.49
2023-01-29T01:52:46.178Z,87.14
2023-01-29T01:55:14.978Z,86.87
2023-01-29T01:57:45.626Z,87.01
2023-01-29T02:00:16.308Z,86.70
2023-01-29T02:03:04.718Z,86.67
2023-01-29T02:05:52.805Z,86.07
2023-01-29T02:09:05.541Z,86.81
2023-01-29T02:11:32.473Z,85.93
2023-01-29T02:13:59.762Z,86.79
2023-01-29T02:16:26.572Z,85.63
2023-01-29T02:18:53.866Z,86.44
2023-01-29T02:21:39.689Z,85.92
2023-01-29T02:24:50.217Z,86.04
2023-01-29T02:27:26.861Z,86.55
2023-01-29T02:30:05.622Z,86.58
2023-01-29T02:33:22.240Z,86.65
2023-01-29T02:36:04.661Z,86.23
2023-01-29T02:38:37.307Z,86.48
2023-01-29T02:41:25.651Z,86.06
2023-01-29T02:44:04.183Z,86.67
2023-01-29T02:46:52.373Z,87.27
2023-01-29T02:49:38.480Z,87.86
2023-01-29T02:52:20.865Z,86.63
2023-01-29T02:55:03.033Z,86.22
2023-01-29T02:57:36.381Z,85.73
2023-01-29T03:00:16.131Z,85.04
2023-01-29T03:02:54.463Z,84.15
2023-01-29T03:05:58.113Z,83.75
2023-01-29T03:08:43.010Z,83.86
2023-01-29T03:11:13.780Z,84.51
2023-01-29T03:14:01.306Z,84.96
2023-01-29T03:16:50.418Z,83.90
2023-01-29T03:19:42.183Z,83.74
2023-01-29T03:22:11.615Z,83.67
2023-01-29T03:25:12.065Z,84.10
2023-01-29T03:28:06.563Z,83.10
2023-01-29T03:30:59.546Z,82.95
2023-01-29T03:33:32.180Z,83.53
2023-01-29T03:36:06.573Z,83.75
2023-01-29T03:38:33.419Z,83.21
2023-01-29T03:41:06.179Z,83.87
2023-01-29T03:44:06.502Z,83.76
2023-01-29T03:46:56.591Z,84.06
2023-01-29T03:49:46.053Z,83.30
2023-01-29T03:52:49.686Z,84.29
2023-01-29T03:55:40.956Z,83.10
2023-01-29T03:58:25.626Z,82.71
2023-01-29T04:01:11.339Z,82.62
2023-01-29T04:03:53.119Z,82.69
2023-01-29T04:06:27.397Z,82.39
2023-01-29T04:09:20.199Z,83.44
2023-01-29T04:11:54.543Z,82.84
2023-01-29T04:14:22.144Z,83.33
2023-01-29T04:16:53.657Z,83.31
2023-01-29T04:19:20.775Z,82.43
2023-01-29T04:21:53.283Z,82.11
2023-01-29T04:24:20.124Z,82.52
2023-01-29T04:27:05.669Z,82.34
2023-01-29T04:29:55.629Z,82.44
2023-01-29T04:32:32.706Z,82.31
2023-01-29T04:35:24.538Z,82.92
2023-01-29T04:38:26.489Z,82.84
2023-01-29T04:41:09.519Z,84.04
2023-01-29T04:44:00.151Z,84.02
2023-01-29T04:46:42.212Z,83.86
2023-01-29T04:49:16.540Z,82.58
2023-01-29T04:52:09.970Z,82.71
2023-01-29T04:55:12.320Z,81.60
2023-01-29T04:57:47.752Z,81.81
2023-01-29T05:00:30.027Z,81.28
2023-01-29T05:02:57.568Z,80.67
2023-01-29T05:05:24.357Z,81.54
2023-01-29T05:07:51.526Z,81.78
2023-01-29T05:10:20.661Z,81.27
2023-01-29T05:12:56.655Z,81.83
2023-01-29T05:15:32.064Z,81.62
2023-01-29T05:18:02.863Z,81.78
2023-01-29T05:20:34.771Z,81.74
2023-01-29T05:23:01.709Z,82.78
2023-01-29T05:25:32.506Z,83.74
2023-01-29T05:28:06.392Z,83.38
2023-01-29T05:30:36.512Z,83.19
2023-01-29T05:33:04.365Z,83.64
2023-01-29T05:35:31.405Z,84.22
2023-01-29T05:37:58.365Z,84.00
2023-01-29T05:40:25.746Z,83.66
2023-01-29T05:42:52.603Z,83.62
2023-01-29T05:45:20.098Z,83.13
2023-01-29T05:47:47.172Z,82.77
2023-01-29T05:50:15.839Z,82.19
2023-01-29T05:52:42.881Z,82.47
2023-01-29T05:55:10.669Z,82.59
2023-01-29T05:57:37.985Z,82.91
2023-01-29T06:00:05.997Z,82.43
2023-01-29T06:02:32.887Z,81.79
2023-01-29T06:04:59.766Z,81.31
2023-01-29T06:07:26.611Z,81.44
2023-01-29T06:09:53.436Z,81.17
2023-01-29T06:12:20.423Z,80.34
2023-01-29T06:14:47.274Z,80.32
2023-01-29T06:17:14.057Z,79.60
2023-01-29T06:19:41.017Z,80.08
2023-01-29T06:22:07.975Z,81.25
2023-01-29T06:24:34.750Z,80.77
2023-01-29T06:27:01.551Z,81.85
2023-01-29T06:29:28.379Z,81.95
2023-01-29T06:31:55.310Z,82.29
2023-01-29T06:34:22.197Z,81.92
2023-01-29T06:36:48.994Z,82.60
2023-01-29T06:39:16.081Z,82.64
2023-01-29T06:41:42.943Z,82.16
2023-01-29T06:44:09.750Z,82.47
2023-01-29T06:46:36.557Z,82.32
2023-01-29T06:49:03.687Z,82.55
2023-01-29T06:51:30.577Z,83.26
2023-01-29T06:53:57.738Z,82.55
2023-01-29T06:56:24.711Z,83.76
2023-01-29T06:58:51.586Z,83.70
2023-01-29T07:01:34.531Z,82.83
2023-01-29T07:04:02.946Z,82.36
2023-01-29T07:06:30.828Z,82.11
2023-01-29T07:08:57.633Z,82.60
2023-01-29T07:11:24.588Z,81.43
2023-01-29T07:13:51.406Z,81.38
2023-01-29T07:16:19.222Z,81.69
2023-01-29T07:18:46.718Z,81.41
2023-01-29T07:21:13.600Z,81.34
2023-01-29T07:23:40.454Z,81.13
2023-01-29T07:26:08.106Z,81.63
2023-01-29T07:28:39.648Z,81.89
2023-01-29T07:31:07.466Z,81.19
2023-01-29T07:33:34.882Z,81.05
2023-01-29T07:36:01.707Z,80.81
2023-01-29T07:38:28.760Z,81.71
2023-01-29T07:40:55.796Z,81.29
2023-01-29T07:43:24.727Z,81.85
2023-01-29T07:45:52.083Z,81.58
2023-01-29T07:48:19.243Z,81.18
2023-01-29T07:50:46.148Z,80.82
2023-01-29T07:53:15.029Z,82.37
2023-01-29T07:55:45.296Z,82.34
2023-01-29T07:58:12.446Z,82.11
2023-01-29T08:00:39.294Z,82.61
2023-01-29T08:03:11.067Z,82.22
2023-01-29T08:05:37.932Z,82.79
2023-01-29T08:08:07.521Z,82.61
2023-01-29T08:10:39.671Z,82.43
2023-01-29T08:13:07.336Z,82.83
2023-01-29T08:15:37.105Z,82.86
2023-01-29T08:18:04.936Z,82.15
2023-01-29T08:20:31.853Z,82.17
2023-01-29T08:23:01.159Z,82.48
2023-01-29T08:25:28.361Z,83.00
2023-01-29T08:28:00.542Z,82.57
2023-01-29T08:30:30.752Z,82.21
2023-01-29T08:32:57.710Z,81.62
2023-01-29T08:35:25.182Z,81.62
2023-01-29T08:38:03.122Z,81.38
2023-01-29T08:40:33.341Z,81.67
2023-01-29T08:43:09.367Z,81.30
2023-01-29T08:45:40.363Z,81.92
2023-01-29T08:48:08.253Z,81.80
2023-01-29T08:50:36.081Z,80.94
2023-01-29T08:53:07.795Z,80.21
2023-01-29T08:55:40.761Z,81.20
2023-01-29T08:58:10.435Z,80.47
2023-01-29T09:00:37.484Z,79.15
2023-01-29T09:03:04.969Z,79.76
2023-01-29T09:05:32.381Z,80.07
2023-01-29T09:07:59.381Z,81.01
2023-01-29T09:10:26.475Z,80.66
2023-01-29T09:12:53.345Z,80.65
2023-01-29T09:15:20.183Z,80.72
2023-01-29T09:17:47.103Z,80.14
2023-01-29T09:20:13.952Z,78.37
2023-01-29T09:22:40.792Z,79.31
2023-01-29T09:25:08.529Z,79.20
2023-01-29T09:27:35.335Z,79.98
2023-01-29T09:30:02.243Z,79.28
2023-01-29T09:32:52.707Z,79.91
2023-01-29T09:35:17.833Z,79.45
2023-01-29T09:37:48.616Z,79.26
2023-01-29T09:40:27.369Z,79.93
2023-01-29T09:43:19.122Z,80.06
2023-01-29T09:45:56.276Z,79.88
2023-01-29T09:48:28.856Z,78.43
2023-01-29T09:50:58.849Z,78.10
2023-01-29T09:53:40.879Z,77.21
2023-01-29T09:56:22.414Z,75.97
2023-01-29T09:58:49.405Z,76.50
2023-01-29T10:01:34.955Z,76.12
2023-01-29T10:04:26.418Z,75.15
2023-01-29T10:07:08.236Z,75.56
2023-01-29T10:09:49.943Z,76.21
2023-01-29T10:12:46.859Z,74.88
2023-01-29T10:15:52.081Z,75.64
2023-01-29T10:18:46.570Z,75.05
2023-01-29T10:21:40.300Z,75.12
2023-01-29T10:24:38.321Z,74.68
2023-01-29T10:27:17.045Z,75.83
2023-01-29T10:29:45.837Z,73.94
2023-01-29T10:32:18.827Z,75.06
2023-01-29T10:35:06.462Z,75.95
2023-01-29T10:37:40.905Z,77.07
2023-01-29T10:40:47.497Z,76.78
2023-01-29T10:43:44.233Z,76.99
2023-01-29T10:46:40.209Z,75.47
2023-01-29T10:49:48.439Z,76.83
2023-01-29T10:52:24.218Z,75.35
2023-01-29T10:55:23.061Z,75.56
2023-01-29T10:58:10.698Z,75.29
2023-01-29T11:00:40.121Z,75.42
2023-01-29T11:03:26.967Z,76.16
2023-01-29T11:06:31.426Z,74.82
2023-01-29T11:09:29.435Z,74.23
2023-01-29T11:12:16.815Z,74.64
2023-01-29T11:14:58.127Z,75.09
2023-01-29T11:17:26.601Z,75.31
2023-01-29T11:19:58.009Z,74.96
2023-01-29T11:22:28.287Z,74.56
2023-01-29T11:25:19.798Z,73.92
2023-01-29T11:27:54.771Z,73.45
2023-01-29T11:30:27.289Z,73.98
2023-01-29T11:33:18.543Z,74.62
2023-01-29T11:35:45.544Z,74.52
2023-01-29T11:38:29.032Z,73.30
2023-01-29T11:41:18.896Z,72.85
2023-01-29T11:43:45.795Z,73.49
2023-01-29T11:46:15.666Z,72.70
2023-01-29T11:48:51.455Z,72.14
2023-01-29T11:51:28.203Z,73.67
2023-01-29T11:54:19.697Z,73.52
2023-01-29T11:56:48.380Z,72.81
2023-01-29T11:59:44.040Z,72.43
2023-01-29T12:02:33.334Z,72.58
2023-01-29T12:05:21.461Z,72.85
2023-01-29T12:07:53.185Z,72.01
2023-01-29T12:10:36.933Z,71.79
2023-01-29T12:13:09.600Z,71.88
2023-01-29T12:15:41.714Z,72.54
2023-01-29T12:18:30.401Z,71.30
2023-01-29T12:21:05.200Z,71.03
2023-01-29T12:24:26.776Z,71.14
2023-01-29T12:27:29.626Z,71.94
2023-01-29T12:30:07.379Z,71.52
2023-01-29T12:33:12.090Z,72.25
2023-01-29T12:35:46.332Z,71.62
2023-01-29T12:38:23.923Z,71.59
2023-01-29T12:40:59.895Z,71.30
2023-01-29T12:43:43.193Z,72.62
2023-01-29T12:46:37.521Z,73.61
2023-01-29T12:49:16.771Z,72.64
2023-01-29T12:51:55.837Z,73.03
2023-01-29T12:54:52.547Z,72.06
2023-01-29T12:58:21.367Z,71.18
2023-01-29T13:00:52.916Z,72.02
2023-01-29T13:03:47.401Z,72.61
2023-01-29T13:06:20.705Z,72.36
2023-01-29T13:08:55.592Z,72.14
2023-01-29T13:11:52.098Z,70.91
2023-01-29T13:14:44.406Z,71.64
2023-01-29T13:17:36.491Z,71.53
2023-01-29T13:20:30.556Z,70.69
2023-01-29T13:23:06.466Z,71.22
2023-01-29T13:25:33.263Z,71.26
2023-01-29T13:28:00.804Z,71.41
2023-01-29T13:30:30.725Z,71.24
2023-01-29T13:33:09.353Z,70.62
2023-01-29T13:35:43.117Z,71.45
2023-01-29T13:38:33.307Z,70.94
2023-01-29T13:41:06.586Z,70.87
2023-01-29T13:43:40.511Z,70.88
2023-01-29T13:46:15.497Z,71.21
2023-01-29T13:48:46.797Z,70.64
2023-01-29T13:51:21.220Z,70.92
2023-01-29T13:54:01.444Z,71.46
2023-01-29T13:56:43.060Z,70.85
2023-01-29T13:59:48.872Z,71.60
2023-01-29T14:02:29.857Z,71.92
2023-01-29T14:05:31.847Z,70.83
2023-01-29T14:08:17.720Z,71.61
2023-01-29T14:10:45.006Z,71.69
2023-01-29T14:13:23.710Z,71.02
2023-01-29T14:15:59.557Z,69.40
2023-01-29T14:18:28.648Z,69.85
2023-01-29T14:21:02.626Z,70.96
2023-01-29T14:23:52.768Z,70.82
2023-01-29T14:26:43.652Z,71.29
2023-01-29T14:29:18.731Z,70.88
2023-01-29T14:32:00.003Z,71.18
2023-01-29T14:35:33.332Z,70.79
2023-01-29T14:38:04.995Z,70.39
2023-01-29T14:40:33.114Z,70.30
2023-01-29T14:43:20.024Z,69.64
2023-01-29T14:45:50.442Z,69.19
2023-01-29T14:48:39.149Z,69.62
2023-01-29T14:51:13.025Z,69.36
2023-01-29T14:54:18.485Z,69.79
2023-01-29T14:57:02.450Z,69.58
2023-01-29T14:59:46.801Z,69.41
2023-01-29T15:02:39.118Z,69.36
2023-01-29T15:05:13.535Z,69.76
2023-01-29T15:07:50.907Z,69.31
2023-01-29T15:10:44.997Z,70.33
2023-01-29T15:13:24.951Z,70.81
2023-01-29T15:16:03.046Z,71.19
2023-01-29T15:18:43.785Z,70.86
2023-01-29T15:21:17.749Z,71.49
2023-01-29T15:23:47.735Z,70.79
2023-01-29T15:26:27.076Z,70.04
2023-01-29T15:29:04.133Z,70.42
2023-01-29T15:31:31.889Z,69.25
2023-01-29T15:34:06.132Z,69.44
2023-01-29T15:36:33.563Z,69.86
2023-01-29T15:39:22.582Z,70.47
2023-01-29T15:41:51.776Z,70.30
2023-01-29T15:44:21.058Z,70.44
2023-01-29T15:46:58.150Z,70.16
2023-01-29T15:49:33.666Z,69.97
2023-01-29T15:52:06.583Z,69.49
2023-01-29T15:54:35.037Z,69.68
2023-01-29T15:57:03.259Z,70.58
2023-01-29T15:59:44.225Z,71.08
2023-01-29T16:02:31.952Z,70.95
2023-01-29T16:04:59.086Z,70.81
2023-01-29T16:07:26.962Z,70.66
2023-01-29T16:09:55.302Z,71.74
2023-01-29T16:12:22.752Z,70.08
2023-01-29T16:14:50.643Z,70.79
2023-01-29T16:17:27.747Z,71.05
2023-01-29T16:20:04.134Z,69.83
2023-01-29T16:22:35.700Z,69.95
2023-01-29T16:25:05.647Z,69.36
2023-01-29T16:27:33.811Z,69.95
2023-01-29T16:30:02.137Z,69.38
2023-01-29T16:32:30.503Z,70.80
2023-01-29T16:35:00.606Z,70.32
2023-01-29T16:37:32.151Z,69.63
2023-01-29T16:39:59.769Z,70.19
2023-01-29T16:42:31.344Z,70.37
2023-01-29T16:45:07.334Z,70.36
2023-01-29T16:47:41.383Z,71.65
2023-01-29T16:50:40.543Z,71.37
2023-01-29T16:53:21.409Z,72.38
2023-01-29T16:55:50.841Z,72.04
2023-01-29T16:58:21.975Z,72.07
2023-01-29T17:00:58.327Z,72.71
2023-01-29T17:03:28.520Z,73.12
2023-01-29T17:05:55.577Z,73.97
2023-01-29T17:08:33.080Z,74.08
2023-01-29T17:11:00.922Z,75.12
2023-01-29T17:13:36.591Z,75.83
2023-01-29T17:16:19.158Z,74.72
2023-01-29T17:18:46.099Z,75.78
2023-01-29T17:21:12.885Z,75.22
2023-01-29T17:23:39.860Z,76.04
2023-01-29T17:26:10.131Z,76.34
2023-01-29T17:28:37.400Z,76.83
2023-01-29T17:31:07.071Z,76.21
2023-01-29T17:33:36.268Z,76.44
2023-01-29T17:36:03.214Z,77.68
2023-01-29T17:38:30.036Z,77.40
2023-01-29T17:41:00.245Z,77.61
2023-01-29T17:43:27.067Z,76.78
2023-01-29T17:45:54.426Z,77.63
2023-01-29T17:48:27.545Z,77.52
2023-01-29T17:51:01.833Z,78.22
2023-01-29T17:53:44.211Z,78.29
2023-01-29T17:56:24.149Z,79.71
2023-01-29T17:58:51.002Z,79.04
2023-01-29T18:01:17.926Z,78.50
2023-01-29T18:03:44.752Z,79.61
2023-01-29T18:06:27.111Z,79.86
2023-01-29T18:08:54.230Z,79.91
2023-01-29T18:11:21.072Z,80.40
2023-01-29T18:13:47.888Z,79.95
2023-01-29T18:16:14.894Z,80.58
2023-01-29T18:18:41.690Z,81.18
2023-01-29T18:21:08.465Z,80.80
2023-01-29T18:23:35.302Z,81.08
2023-01-29T18:26:02.133Z,80.95
2023-01-29T18:28:29.700Z,81.58
2023-01-29T18:30:56.545Z,82.08
2023-01-29T18:33:24.271Z,81.80
2023-01-29T18:35:51.068Z,81.04
2023-01-29T18:38:18.285Z,81.47
2023-01-29T18:40:45.114Z,81.10
2023-01-29T18:43:11.909Z,81.45
2023-01-29T18:45:38.867Z,82.54
2023-01-29T18:48:06.027Z,82.50
2023-01-29T18:50:34.108Z,82.84
2023-01-29T18:53:01.047Z,83.22
2023-01-29T18:55:27.862Z,82.80
2023-01-29T18:58:28.168Z,81.92
2023-01-29T19:00:43.063Z,82.48
2023-01-29T19:03:10.969Z,82.40
2023-01-29T19:05:37.890Z,82.75
2023-01-29T19:08:05.721Z,84.12
2023-01-29T19:10:33.064Z,83.89
2023-01-29T19:13:00.910Z,85.25
2023-01-29T19:15:28.034Z,84.15
2023-01-29T19:17:55.012Z,84.50
2023-01-29T19:20:21.967Z,84.89
2023-01-29T19:22:48.792Z,84.90
2023-01-29T19:25:16.593Z,85.40
2023-01-29T19:27:43.809Z,85.78
2023-01-29T19:30:12.838Z,85.92
2023-01-29T19:32:40.962Z,85.54
2023-01-29T19:35:08.070Z,86.50
2023-01-29T19:37:34.881Z,85.50
2023-01-29T19:40:01.728Z,85.78
2023-01-29T19:42:28.608Z,85.67
2023-01-29T19:44:55.523Z,86.15
2023-01-29T19:47:22.399Z,85.22
2023-01-29T19:49:49.354Z,85.85
2023-01-29T19:52:49.782Z,86.26
2023-01-29T19:55:18.807Z,85.47
2023-01-29T19:57:46.232Z,86.12
2023-01-29T20:00:14.818Z,85.99
2023-01-29T20:02:41.765Z,86.80
2023-01-29T20:05:11.950Z,86.74
2023-01-29T20:07:42.414Z,87.07
2023-01-29T20:10:16.785Z,86.74
2023-01-29T20:12:45.091Z,86.28
2023-01-29T20:15:15.538Z,85.97
2023-01-29T20:17:45.410Z,86.29
2023-01-29T20:20:12.465Z,85.94
2023-01-29T20:22:39.377Z,86.23
2023-01-29T20:25:06.828Z,86.02
2023-01-29T20:27:33.683Z,86.85
2023-01-29T20:30:00.533Z,86.79
2023-01-29T20:32:27.361Z,87.28
2023-01-29T20:34:54.262Z,87.54
2023-01-29T20:37:21.215Z,87.87
2023-01-29T20:39:48.178Z,87.87
2023-01-29T20:42:15.085Z,87.98
2023-01-29T20:44:42.089Z,87.55
2023-01-29T20:47:09.158Z,86.80
2023-01-29T20:49:36.045Z,88.07
2023-01-29T20:52:03.084Z,87.43
2023-01-29T20:54:30.103Z,88.14
2023-01-29T20:56:57.130Z,88.10
2023-01-29T20:59:23.972Z,88.06
2023-01-29T21:01:50.961Z,88.36
2023-01-29T21:04:17.852Z,89.25
2023-01-29T21:06:44.683Z,88.89
2023-01-29T21:09:11.473Z,89.47
2023-01-29T21:11:38.308Z,89.75
2023-01-29T21:14:05.310Z,89.72
2023-01-29T21:16:32.138Z,89.30
2023-01-29T21:18:59.130Z,89.73
2023-01-29T21:21:26.630Z,90.03
2023-01-29T21:23:53.676Z,89.70
2023-01-29T21:26:20.534Z,90.32
2023-01-29T21:28:47.386Z,90.74
2023-01-29T21:31:16.861Z,90.84
2023-01-29T21:33:44.385Z,90.06
2023-01-29T21:36:11.558Z,90.37
2023-01-29T21:38:39.444Z,90.32
2023-01-29T21:41:09.501Z,90.87
2023-01-29T21:43:37.361Z,93.32
2023-01-29T21:46:11.652Z,94.32
2023-01-29T21:48:39.659Z,93.27
2023-01-29T21:51:07.190Z,93.28
2023-01-29T21:53:34.430Z,92.75
2023-01-29T21:56:02.770Z,92.77
2023-01-29T21:58:30.007Z,92.09
2023-01-29T22:00:57.153Z,91.14
2023-01-29T22:03:47.098Z,91.04
2023-01-29T22:06:14.529Z,90.65
2023-01-29T22:08:41.377Z,90.53
2023-01-29T22:11:08.838Z,89.90
2023-01-29T22:13:36.044Z,90.19
2023-01-29T22:16:02.937Z,90.21
2023-01-29T22:18:29.791Z,90.78
2023-01-29T22:20:57.615Z,91.59
2023-01-29T22:23:24.909Z,91.60
2023-01-29T22:25:51.701Z,91.33
2023-01-29T22:28:18.970Z,91.34
2023-01-29T22:30:45.968Z,91.09
2023-01-29T22:33:12.901Z,90.30
2023-01-29T22:35:39.752Z,90.42
2023-01-29T22:38:07.691Z,91.54
2023-01-29T22:40:35.288Z,92.11
2023-01-29T22:43:02.081Z,91.70
2023-01-29T22:45:28.950Z,91.74
2023-01-29T22:47:55.829Z,91.57
2023-01-29T22:50:22.649Z,92.22
2023-01-29T22:52:53.995Z,91.69
2023-01-29T22:55:21.125Z,92.64
2023-01-29T22:57:51.131Z,91.25
2023-01-29T23:00:18.899Z,91.25
2023-01-29T23:02:49.840Z,91.25
2023-01-29T23:05:18.127Z,91.35
2023-01-29T23:07:45.407Z,91.33
2023-01-29T23:10:14.931Z,91.51
2023-01-29T23:12:41.918Z,92.38
2023-01-29T23:15:09.077Z,92.19
2023-01-29T23:17:35.961Z,92.24
2023-01-29T23:20:03.619Z,91.63
2023-01-29T23:22:30.435Z,91.55
2023-01-29T23:24:57.229Z,92.04
2023-01-29T23:27:24.009Z,91.86
2023-01-29T23:29:50.799Z,92.24
2023-01-29T23:32:21.636Z,92.16
2023-01-29T23:34:48.538Z,92.74
2023-01-29T23:37:15.414Z,93.43
2023-01-29T23:39:42.249Z,93.73
2023-01-29T23:42:09.035Z,92.73
2023-01-29T23:44:35.843Z,93.38
2023-01-29T23:47:02.669Z,93.31
2023-01-29T23:49:29.525Z,92.70
2023-01-29T23:51:56.298Z,93.24
2023-01-29T23:54:23.070Z,93.17
2023-01-29T23:56:50.238Z,93.96
2023-01-29T23:59:17.257Z,95.91
